createdAt,value
2023-03-11T00:03:51.712Z,97203.13
2023-03-11T00:07:56.781Z,97207.66
2023-03-11T00:11:59.030Z,97216.22
2023-03-11T00:16:01.658Z,97227.47
2023-03-11T00:20:07.394Z,97220.75
2023-03-11T00:24:09.951Z,97226.31
2023-03-11T00:28:14.869Z,97232.59
2023-03-11T00:32:17.673Z,97221.56
2023-03-11T00:36:38.042Z,97221.16
2023-03-11T00:40:40.444Z,97230.41
2023-03-11T00:44:43.154Z,97225.19
2023-03-11T00:48:45.551Z,97206.31
2023-03-11T00:52:49.403Z,97215.59
2023-03-11T00:56:52.211Z,97240.09
2023-03-11T01:00:54.461Z,97226.81
2023-03-11T01:04:57.289Z,97223.06
2023-03-11T01:08:59.637Z,97221.81
2023-03-11T01:13:02.591Z,97199.69
2023-03-11T01:17:05.006Z,97196.06
2023-03-11T01:21:07.312Z,97209.47
2023-03-11T01:25:13.951Z,97177.91
2023-03-11T01:29:16.225Z,97166.44
2023-03-11T01:33:19.978Z,97179.59
2023-03-11T01:37:22.302Z,97166.75
2023-03-11T01:41:24.594Z,97165.88
2023-03-11T01:45:50.044Z,97147.44
2023-03-11T01:49:55.083Z,97144.31
2023-03-11T01:54:01.546Z,97145.75
2023-03-11T01:58:08.364Z,97133.72
2023-03-11T02:02:21.186Z,97146.94
2023-03-11T02:06:27.983Z,97146.94
2023-03-11T02:10:31.843Z,97137.66
2023-03-11T02:14:36.053Z,97148.41
2023-03-11T02:18:38.445Z,97137.66
2023-03-11T02:22:42.647Z,97122.78
2023-03-11T02:27:08.135Z,97110.25
2023-03-11T02:31:11.154Z,97071.63
2023-03-11T02:35:13.546Z,97057.75
2023-03-11T02:39:16.042Z,97044.66
2023-03-11T02:43:29.548Z,97040.28
2023-03-11T02:47:33.869Z,97036.41
2023-03-11T02:51:36.135Z,97046.66
2023-03-11T02:55:38.694Z,97047.16
2023-03-11T02:59:43.243Z,97063.78
2023-03-11T03:03:46.014Z,97047.78
2023-03-11T03:07:49.756Z,97041.38
2023-03-11T03:11:56.750Z,97034.94
2023-03-11T03:16:00.890Z,97037.31
2023-03-11T03:20:06.344Z,97026.16
2023-03-11T03:24:12.174Z,97020.03
2023-03-11T03:28:15.918Z,97018.34
2023-03-11T03:32:21.358Z,97013.81
2023-03-11T03:36:24.257Z,97026.03
2023-03-11T03:40:34.332Z,97040.53
2023-03-11T03:44:41.167Z,97029.22
2023-03-11T03:48:44.169Z,97043.53
2023-03-11T03:52:52.496Z,97058.66
2023-03-11T03:56:58.605Z,97028.53
2023-03-11T04:01:01.009Z,97025.56
2023-03-11T04:05:04.137Z,97057.06
2023-03-11T04:09:06.913Z,97068.69
2023-03-11T04:13:11.070Z,97062.13
2023-03-11T04:17:14.667Z,97071.72
2023-03-11T04:21:17.688Z,97075.19
2023-03-11T04:25:20.818Z,97061.94
2023-03-11T04:29:23.264Z,97076.34
2023-03-11T04:33:28.711Z,97061.13
2023-03-11T04:37:31.456Z,97064.75
2023-03-11T04:41:33.949Z,97070.88
2023-03-11T04:45:39.174Z,97059.59
2023-03-11T04:49:41.707Z,97080.16
2023-03-11T04:53:44.550Z,97083.91
2023-03-11T04:57:47.577Z,97063.66
2023-03-11T05:01:50.918Z,97065.88
2023-03-11T05:05:56.767Z,97073.56
2023-03-11T05:09:59.190Z,97086.69
2023-03-11T05:14:02.098Z,97077.22
2023-03-11T05:18:05.632Z,97080.88
2023-03-11T05:22:09.557Z,97084.91
2023-03-11T05:26:12.654Z,97085.44
2023-03-11T05:30:17.747Z,97101.91
2023-03-11T05:34:21.616Z,97119.66
2023-03-11T05:38:24.291Z,97113.88
2023-03-11T05:42:27.208Z,97099.59
2023-03-11T05:46:32.388Z,97093.78
2023-03-11T05:50:35.938Z,97100.03
2023-03-11T05:54:38.831Z,97080.75
2023-03-11T05:58:41.842Z,97078.25
2023-03-11T06:02:44.994Z,97072.75
2023-03-11T06:06:50.676Z,97083.44
2023-03-11T06:11:02.264Z,97090.34
2023-03-11T06:20:14.422Z,97063.91
2023-03-11T06:24:18.170Z,97059.81
2023-03-11T06:28:21.106Z,97076.69
2023-03-11T06:32:23.466Z,97068.84
2023-03-11T06:36:26.726Z,97076.84
2023-03-11T06:40:29.035Z,97081.88
2023-03-11T06:44:31.364Z,97061.38
2023-03-11T06:48:33.843Z,97032.03
2023-03-11T06:52:36.080Z,97056.09
2023-03-11T06:56:38.304Z,97089.72
2023-03-11T07:00:43.291Z,97113.88
2023-03-11T07:04:49.598Z,97109.38
2023-03-11T07:08:54.053Z,97110.84
2023-03-11T07:12:56.144Z,97108.00
2023-03-11T07:16:59.539Z,97103.81
2023-03-11T07:21:08.869Z,97112.72
2023-03-11T07:25:11.012Z,97102.69
2023-03-11T07:29:13.079Z,97090.59
2023-03-11T07:33:15.803Z,97083.88
2023-03-11T07:37:17.884Z,97078.84
2023-03-11T07:41:20.468Z,97101.94
2023-03-11T07:45:24.114Z,97113.63
2023-03-11T07:49:26.312Z,97118.38
2023-03-11T07:53:28.723Z,97124.66
2023-03-11T07:57:31.634Z,97121.63
2023-03-11T08:01:40.783Z,97095.72
2023-03-11T08:05:44.123Z,97069.16
2023-03-11T08:09:46.716Z,97081.66
2023-03-11T08:13:53.263Z,97073.59
2023-03-11T08:17:55.785Z,97078.47
2023-03-11T08:21:57.974Z,97081.75
2023-03-11T08:26:04.295Z,97088.38
2023-03-11T08:30:07.739Z,97098.13
2023-03-11T08:34:11.029Z,97112.91
2023-03-11T08:38:13.523Z,97109.28
2023-03-11T08:42:17.601Z,97126.44
2023-03-11T08:46:28.966Z,97112.91
2023-03-11T08:50:34.933Z,97097.34
2023-03-11T08:54:43.224Z,97113.84
2023-03-11T08:58:46.719Z,97119.69
2023-03-11T09:02:49.918Z,97121.72
2023-03-11T09:06:52.252Z,97126.91
2023-03-11T09:10:54.916Z,97135.22
2023-03-11T09:14:57.234Z,97133.16
2023-03-11T09:19:15.706Z,97146.06
2023-03-11T09:23:21.452Z,97145.94
2023-03-11T09:28:16.958Z,97137.84
2023-03-11T09:32:19.079Z,97136.53
2023-03-11T09:36:21.844Z,97133.50
2023-03-11T09:40:26.398Z,97141.03
2023-03-11T09:44:42.376Z,97139.19
2023-03-11T09:49:26.354Z,97126.91
2023-03-11T09:53:46.305Z,97117.03
2023-03-11T09:58:19.513Z,97125.47
2023-03-11T10:02:27.921Z,97113.75
2023-03-11T10:06:30.829Z,97113.50
2023-03-11T10:10:44.074Z,97113.91
2023-03-11T10:15:05.962Z,97116.50
2023-03-11T10:19:59.453Z,97108.06
2023-03-11T10:24:30.865Z,97121.09
2023-03-11T10:28:37.201Z,97116.50
2023-03-11T10:33:13.695Z,97120.84
2023-03-11T10:37:48.458Z,97118.00
2023-03-11T10:42:02.034Z,97118.47
2023-03-11T10:46:09.476Z,97105.56
2023-03-11T10:50:17.870Z,97100.34
2023-03-11T10:54:27.507Z,97104.84
2023-03-11T10:58:31.069Z,97111.78
2023-03-11T11:02:49.756Z,97105.19
2023-03-11T11:06:52.341Z,97113.16
2023-03-11T11:10:57.663Z,97112.47
2023-03-11T11:14:59.802Z,97108.66
2023-03-11T11:19:12.027Z,97111.00
2023-03-11T11:23:27.708Z,97107.28
2023-03-11T11:27:33.256Z,97096.97
2023-03-11T11:31:38.970Z,97100.06
2023-03-11T11:35:52.281Z,97105.06
2023-03-11T11:39:58.671Z,97111.19
2023-03-11T11:44:39.279Z,97101.16
2023-03-11T11:48:48.777Z,97106.44
2023-03-11T11:53:02.223Z,97089.63
2023-03-11T11:57:19.761Z,97093.19
2023-03-11T12:01:45.203Z,97079.53
2023-03-11T12:06:06.323Z,97080.56
2023-03-11T12:10:59.775Z,97082.00
2023-03-11T12:15:14.406Z,97078.03
2023-03-11T12:19:20.011Z,97079.16
2023-03-11T12:23:55.133Z,97073.69
2023-03-11T12:28:45.271Z,97068.56
2023-03-11T12:33:02.493Z,97067.69
2023-03-11T12:37:15.000Z,97050.06
2023-03-11T12:41:29.669Z,97039.75
2023-03-11T12:45:53.690Z,97031.06
2023-03-11T12:50:16.688Z,97029.72
2023-03-11T12:54:32.993Z,97032.34
2023-03-11T12:58:38.187Z,97043.00
2023-03-11T13:02:49.584Z,97028.44
2023-03-11T13:07:26.341Z,97028.69
2023-03-11T13:11:31.741Z,97023.03
2023-03-11T13:15:37.919Z,97023.16
2023-03-11T13:19:49.643Z,97032.84
2023-03-11T13:23:52.175Z,97040.41
2023-03-11T13:28:08.279Z,97042.63
2023-03-11T13:32:53.043Z,97044.47
2023-03-11T13:37:07.173Z,97047.28
2023-03-11T13:41:22.504Z,97044.91
2023-03-11T13:45:29.300Z,97059.06
2023-03-11T13:49:43.923Z,97047.56
2023-03-11T13:54:00.944Z,97041.59
2023-03-11T13:58:15.629Z,97052.59
2023-03-11T14:02:20.206Z,97043.41
2023-03-11T14:06:23.145Z,97050.97
2023-03-11T14:10:25.371Z,97039.56
2023-03-11T14:14:30.899Z,97044.56
2023-03-11T14:18:36.985Z,97055.91
2023-03-11T14:22:40.079Z,97061.38
2023-03-11T14:26:44.426Z,97065.91
2023-03-11T14:31:02.191Z,97063.00
2023-03-11T14:35:21.451Z,97060.59
2023-03-11T14:39:31.616Z,97051.78
2023-03-11T14:43:40.596Z,97070.63
2023-03-11T14:47:46.267Z,97077.47
2023-03-11T14:51:57.109Z,97065.44
2023-03-11T14:56:08.028Z,97075.31
2023-03-11T15:00:22.014Z,97065.94
2023-03-11T15:04:34.613Z,97073.63
2023-03-11T15:09:00.125Z,97074.16
2023-03-11T15:13:16.121Z,97070.13
2023-03-11T15:17:34.251Z,97079.50
2023-03-11T15:21:37.906Z,97067.00
2023-03-11T15:25:40.904Z,97074.50
2023-03-11T15:29:52.554Z,97076.81
2023-03-11T15:33:56.829Z,97071.13
2023-03-11T15:38:31.502Z,97084.34
2023-03-11T15:42:33.555Z,97087.97
2023-03-11T15:46:35.995Z,97087.19
2023-03-11T15:50:53.239Z,97096.78
2023-03-11T15:54:56.285Z,97099.63
2023-03-11T15:58:59.899Z,97096.50
2023-03-11T16:03:04.776Z,97096.53
2023-03-11T16:07:08.747Z,97096.66
2023-03-11T16:11:13.878Z,97091.53
2023-03-11T16:15:29.205Z,97087.81
2023-03-11T16:19:33.118Z,97089.84
2023-03-11T16:23:50.656Z,97092.53
2023-03-11T16:27:55.872Z,97098.53
2023-03-11T16:31:58.145Z,97111.19
2023-03-11T16:36:00.548Z,97100.34
2023-03-11T16:40:04.899Z,97098.44
2023-03-11T16:44:09.595Z,97111.50
2023-03-11T16:48:13.652Z,97110.00
2023-03-11T16:52:20.325Z,97116.09
2023-03-11T16:56:23.055Z,97113.44
2023-03-11T17:00:26.402Z,97122.84
2023-03-11T17:04:29.720Z,97120.75
2023-03-11T17:08:32.600Z,97129.38
2023-03-11T17:12:36.264Z,97137.84
2023-03-11T17:16:39.728Z,97152.47
2023-03-11T17:20:43.748Z,97167.66
2023-03-11T17:24:48.529Z,97165.81
2023-03-11T17:28:51.102Z,97164.13
2023-03-11T17:32:54.710Z,97173.94
2023-03-11T17:36:59.085Z,97177.53
2023-03-11T17:41:07.732Z,97188.75
2023-03-11T17:45:10.828Z,97195.50
2023-03-11T17:49:15.074Z,97193.13
2023-03-11T17:53:17.628Z,97196.91
2023-03-11T17:57:20.436Z,97205.72
2023-03-11T18:01:25.305Z,97197.41
2023-03-11T18:05:28.040Z,97203.34
2023-03-11T18:09:31.387Z,97213.44
2023-03-11T18:13:34.738Z,97210.75
2023-03-11T18:17:37.199Z,97210.41
2023-03-11T18:21:39.338Z,97219.06
2023-03-11T18:25:41.602Z,97225.34
2023-03-11T18:29:44.227Z,97222.81
2023-03-11T18:33:52.854Z,97235.81
2023-03-11T18:37:55.136Z,97245.97
2023-03-11T18:41:57.470Z,97243.94
2023-03-11T18:46:01.457Z,97241.91
2023-03-11T18:50:04.659Z,97243.22
2023-03-11T18:54:09.948Z,97254.38
2023-03-11T18:58:12.197Z,97270.72
2023-03-11T19:02:14.460Z,97270.84
2023-03-11T19:06:16.954Z,97271.53
2023-03-11T19:10:20.199Z,97272.13
2023-03-11T19:14:22.396Z,97274.13
2023-03-11T19:18:25.409Z,97277.31
2023-03-11T19:22:27.681Z,97283.94
2023-03-11T19:26:43.849Z,97299.72
2023-03-11T19:30:51.802Z,97308.94
2023-03-11T19:40:31.833Z,97331.28
2023-03-11T19:44:36.510Z,97331.34
2023-03-11T19:48:40.093Z,97319.59
2023-03-11T19:52:42.333Z,97318.03
2023-03-11T19:56:45.245Z,97330.28
2023-03-11T20:00:48.328Z,97328.69
2023-03-11T20:04:50.531Z,97324.16
2023-03-11T20:08:52.764Z,97328.47
2023-03-11T20:13:02.243Z,97332.41
2023-03-11T20:17:04.843Z,97347.47
2023-03-11T20:21:08.998Z,97351.53
2023-03-11T20:25:11.249Z,97361.97
2023-03-11T20:29:13.706Z,97355.09
2023-03-11T20:33:15.956Z,97362.97
2023-03-11T20:37:18.548Z,97364.13
2023-03-11T20:41:23.393Z,97371.03
2023-03-11T20:45:25.720Z,97380.94
2023-03-11T20:49:28.796Z,97383.72
2023-03-11T20:53:31.745Z,97389.63
2023-03-11T20:57:34.900Z,97393.47
2023-03-11T21:01:37.596Z,97394.44
2023-03-11T21:05:40.140Z,97390.19
2023-03-11T21:09:42.676Z,97380.22
2023-03-11T21:13:45.075Z,97384.25
2023-03-11T21:17:47.316Z,97387.03
2023-03-11T21:21:49.526Z,97388.97
2023-03-11T21:25:59.709Z,97384.38
2023-03-11T21:30:03.920Z,97387.63
2023-03-11T21:34:06.284Z,97387.41
2023-03-11T21:38:08.889Z,97391.00
2023-03-11T21:42:11.440Z,97384.81
2023-03-11T21:46:16.405Z,97390.50
2023-03-11T21:50:19.178Z,97386.31
2023-03-11T21:54:21.498Z,97388.22
2023-03-11T21:58:23.761Z,97384.19
2023-03-11T22:02:26.086Z,97392.22
2023-03-11T22:06:28.412Z,97387.63
2023-03-11T22:10:31.689Z,97397.78
2023-03-11T22:14:33.858Z,97410.81
2023-03-11T22:18:36.371Z,97407.00
2023-03-11T22:22:38.653Z,97404.56
2023-03-11T22:26:40.725Z,97404.13
2023-03-11T22:30:42.813Z,97399.41
2023-03-11T22:34:45.032Z,97403.81
2023-03-11T22:38:47.466Z,97411.34
2023-03-11T22:42:49.618Z,97412.56
2023-03-11T22:46:51.870Z,97423.66
2023-03-11T22:50:54.216Z,97431.34
2023-03-11T22:54:56.436Z,97427.00
2023-03-11T22:58:58.636Z,97440.56
2023-03-11T23:03:00.791Z,97430.00
2023-03-11T23:07:03.072Z,97432.63
2023-03-11T23:11:08.154Z,97433.31
2023-03-11T23:15:13.784Z,97443.47
2023-03-11T23:19:16.034Z,97456.28
2023-03-11T23:23:18.212Z,97449.22
2023-03-11T23:27:20.433Z,97451.22
2023-03-11T23:31:25.204Z,97460.19
2023-03-11T23:35:27.631Z,97462.28
2023-03-11T23:39:29.919Z,97458.94
2023-03-11T23:43:32.014Z,97458.47
2023-03-11T23:47:34.137Z,97454.41
2023-03-11T23:51:36.609Z,97461.50
2023-03-11T23:55:38.913Z,97457.50
2023-03-11T23:59:41.257Z,97460.84
